Time;durP1;ratioP1;P1;durP2;ratioP2;P2;SDS_P1;SDS_P2;PMS_P1;PMS_P2;Temp;Humidity;BMP_temperature;BMP_pressure;BME280_temperature;BME280_humidity;BME280_pressure;Samples;Min_cycle;Max_cycle;Signal;HPM_P1;HPM_P2
2023/11/11 00:02:24;;;;;;;13.57;7.32;;;7.90;95.10;;;;;;5022434;28;20135;-77
2023/11/11 00:04:49;;;;;;;13.15;7.35;;;7.90;95.00;;;;;;5022396;28;20044;-76
2023/11/11 00:07:15;;;;;;;11.40;6.65;;;7.90;95.00;;;;;;5021409;28;20052;-76
2023/11/11 00:09:41;;;;;;;10.88;6.70;;;7.80;94.90;;;;;;5023666;28;20122;-78
2023/11/11 00:12:07;;;;;;;12.85;6.53;;;7.80;94.80;;;;;;5022353;28;20092;-80
2023/11/11 00:14:34;;;;;;;10.90;6.30;;;7.80;94.60;;;;;;5018835;28;20033;-76
2023/11/11 00:17:00;;;;;;;12.15;6.15;;;7.70;94.50;;;;;;5024194;28;20061;-76
2023/11/11 00:19:26;;;;;;;11.75;6.70;;;7.70;94.40;;;;;;5013124;28;20080;-77
2023/11/11 00:21:54;;;;;;;12.05;6.50;;;7.70;94.40;;;;;;5022318;28;20480;-79
2023/11/11 00:24:20;;;;;;;13.00;6.20;;;7.60;94.40;;;;;;5024355;28;20120;-77
2023/11/11 00:26:49;;;;;;;10.40;6.13;;;7.60;94.40;;;;;;5021907;28;20049;-75
2023/11/11 00:29:18;;;;;;;11.77;5.85;;;7.60;94.50;;;;;;5022830;28;20206;-75
2023/11/11 00:31:47;;;;;;;13.35;6.40;;;7.50;94.60;;;;;;5025039;28;20037;-76
2023/11/11 00:34:15;;;;;;;14.35;6.53;;;7.50;94.70;;;;;;5020445;28;20030;-76
2023/11/11 00:36:41;;;;;;;11.32;5.82;;;7.40;94.80;;;;;;5023313;28;20026;-76
2023/11/11 00:39:06;;;;;;;14.30;6.57;;;7.40;94.90;;;;;;5017215;28;20041;-76
2023/11/11 00:41:33;;;;;;;13.35;7.30;;;7.40;94.80;;;;;;5024713;28;20041;-75
2023/11/11 00:43:59;;;;;;;14.63;6.60;;;7.30;94.90;;;;;;5025840;28;20018;-78
2023/11/11 00:46:24;;;;;;;14.43;6.88;;;7.30;95.00;;;;;;5024627;28;20131;-75
2023/11/11 00:48:50;;;;;;;15.82;6.93;;;7.30;95.00;;;;;;5020154;28;20033;-75
2023/11/11 00:51:17;;;;;;;18.15;7.00;;;7.30;95.00;;;;;;5019275;28;20118;-80
2023/11/11 00:53:44;;;;;;;12.43;6.53;;;7.30;95.10;;;;;;5025808;28;20574;-75
2023/11/11 00:56:10;;;;;;;11.80;6.75;;;7.30;95.20;;;;;;5023671;28;20356;-75
2023/11/11 00:58:36;;;;;;;12.88;6.68;;;7.30;95.20;;;;;;5015040;28;20752;-76
2023/11/11 01:01:01;;;;;;;14.05;7.50;;;7.40;95.10;;;;;;5037470;28;20438;-76
2023/11/11 01:03:27;;;;;;;11.43;6.53;;;7.30;95.00;;;;;;5019167;28;20645;-78
2023/11/11 01:05:53;;;;;;;13.18;6.68;;;7.30;95.10;;;;;;5022859;28;20041;-75
2023/11/11 01:08:19;;;;;;;10.70;7.07;;;7.30;95.10;;;;;;5018059;28;20074;-75
2023/11/11 01:10:45;;;;;;;11.40;6.78;;;7.30;95.10;;;;;;5022265;28;20117;-74
2023/11/11 01:13:11;;;;;;;15.73;8.68;;;7.20;95.10;;;;;;5021620;28;20120;-77
2023/11/11 01:15:37;;;;;;;12.45;7.97;;;7.20;95.20;;;;;;5023008;28;20445;-74
2023/11/11 01:18:03;;;;;;;16.30;9.65;;;7.10;95.20;;;;;;5026116;28;20124;-75
2023/11/11 01:20:28;;;;;;;16.92;9.93;;;7.10;95.50;;;;;;5022454;28;20991;-76
2023/11/11 01:22:54;;;;;;;17.52;10.25;;;7.10;95.60;;;;;;5025346;28;20030;-74
2023/11/11 01:25:21;;;;;;;17.95;11.57;;;7.10;95.80;;;;;;5023847;28;20128;-76
2023/11/11 01:27:47;;;;;;;17.75;11.35;;;7.10;95.90;;;;;;5024070;28;20116;-75
2023/11/11 01:30:13;;;;;;;18.63;12.05;;;7.10;96.20;;;;;;5019285;28;20034;-76
2023/11/11 01:32:39;;;;;;;16.80;12.98;;;7.10;96.30;;;;;;5022919;28;20041;-80
2023/11/11 01:35:05;;;;;;;21.63;12.80;;;7.00;96.40;;;;;;5024578;28;20492;-75
2023/11/11 01:37:31;;;;;;;20.73;12.85;;;7.00;96.40;;;;;;5024859;28;20026;-74
2023/11/11 01:39:57;;;;;;;19.58;13.30;;;7.00;96.50;;;;;;5022681;28;20046;-75
2023/11/11 01:42:23;;;;;;;19.83;12.93;;;7.00;96.50;;;;;;5019603;28;20040;-75
2023/11/11 01:44:49;;;;;;;21.85;13.90;;;7.00;96.60;;;;;;5017567;28;20371;-75
2023/11/11 01:47:16;;;;;;;21.15;13.15;;;6.90;96.60;;;;;;5017020;28;20066;-76
2023/11/11 01:49:43;;;;;;;25.15;13.57;;;6.90;96.60;;;;;;5021432;28;20028;-75
2023/11/11 01:52:09;;;;;;;21.13;14.07;;;6.90;96.60;;;;;;5023200;28;20037;-77
2023/11/11 01:54:36;;;;;;;21.85;13.52;;;6.80;96.60;;;;;;5019687;28;20474;-75
2023/11/11 01:57:04;;;;;;;19.38;13.85;;;6.80;96.60;;;;;;5022676;28;20057;-79
2023/11/11 01:59:32;;;;;;;25.27;14.10;;;6.80;96.70;;;;;;5021761;28;20079;-76
2023/11/11 02:02:00;;;;;;;24.23;15.25;;;6.80;96.80;;;;;;5019888;28;20028;-77
2023/11/11 02:04:26;;;;;;;22.15;14.30;;;6.80;96.80;;;;;;5019010;28;20553;-76
2023/11/11 02:06:51;;;;;;;24.05;14.88;;;6.80;96.90;;;;;;5022222;28;20028;-78
2023/11/11 02:09:21;;;;;;;23.88;15.20;;;6.80;96.80;;;;;;5023064;28;20101;-78
2023/11/11 02:11:49;;;;;;;22.38;15.18;;;6.70;96.70;;;;;;5020131;28;20326;-75
2023/11/11 02:14:16;;;;;;;21.73;14.75;;;6.70;96.60;;;;;;5020508;28;20026;-74
2023/11/11 02:16:41;;;;;;;24.08;15.85;;;6.70;96.70;;;;;;5023085;28;20352;-74
2023/11/11 02:19:09;;;;;;;23.05;14.73;;;6.70;96.60;;;;;;5030262;28;20307;-80
2023/11/11 02:21:34;;;;;;;21.10;13.90;;;6.70;96.60;;;;;;5038180;28;20094;-77
2023/11/11 02:24:02;;;;;;;22.15;14.68;;;6.60;96.60;;;;;;5046149;28;20658;-79
2023/11/11 02:26:27;;;;;;;24.15;14.95;;;6.60;96.60;;;;;;5034504;28;20041;-76
2023/11/11 02:28:53;;;;;;;25.13;16.15;;;6.60;96.60;;;;;;5023870;28;20555;-76
2023/11/11 02:31:19;;;;;;;25.90;14.63;;;6.60;96.60;;;;;;5022199;28;20124;-75
2023/11/11 02:33:44;;;;;;;24.38;15.80;;;6.60;96.70;;;;;;5025835;28;20037;-77
2023/11/11 02:36:10;;;;;;;21.73;14.93;;;6.60;96.70;;;;;;5021585;28;20033;-76
2023/11/11 02:38:36;;;;;;;24.00;15.00;;;6.70;96.60;;;;;;5022702;28;20032;-75
2023/11/11 02:41:02;;;;;;;23.98;15.30;;;6.70;96.40;;;;;;5023433;28;20041;-78
2023/11/11 02:43:28;;;;;;;23.67;13.95;;;6.70;96.30;;;;;;5015157;28;20559;-75
2023/11/11 02:45:53;;;;;;;18.30;13.13;;;6.70;96.20;;;;;;5016318;28;20042;-75
2023/11/11 02:48:19;;;;;;;20.85;13.48;;;6.70;96.00;;;;;;5022320;28;20352;-75
2023/11/11 02:50:45;;;;;;;19.63;13.65;;;6.60;95.90;;;;;;5024671;28;20034;-74
2023/11/11 02:53:11;;;;;;;20.50;14.43;;;6.70;95.90;;;;;;5021536;28;20034;-75
2023/11/11 02:55:36;;;;;;;20.30;13.73;;;6.60;95.80;;;;;;5014581;28;20029;-76
2023/11/11 02:58:02;;;;;;;22.02;13.18;;;6.60;95.60;;;;;;5021972;28;20036;-75
2023/11/11 03:00:28;;;;;;;23.80;13.80;;;6.60;95.50;;;;;;5019430;28;20041;-75
2023/11/11 03:02:54;;;;;;;19.85;13.50;;;6.60;95.50;;;;;;5022884;28;20578;-75
2023/11/11 03:05:19;;;;;;;20.65;13.05;;;6.60;95.50;;;;;;5019082;28;20057;-75
2023/11/11 03:07:45;;;;;;;20.13;12.27;;;6.60;95.50;;;;;;5026719;28;20029;-75
2023/11/11 03:10:14;;;;;;;21.25;11.57;;;6.50;95.40;;;;;;5018197;28;20120;-75
2023/11/11 03:12:41;;;;;;;17.88;11.32;;;6.50;95.50;;;;;;5018701;28;20116;-78
2023/11/11 03:15:08;;;;;;;18.92;11.05;;;6.50;95.60;;;;;;5021151;28;20096;-77
2023/11/11 03:17:33;;;;;;;17.55;11.65;;;6.50;95.70;;;;;;5016539;28;20227;-74
2023/11/11 03:19:59;;;;;;;17.98;11.45;;;6.50;95.50;;;;;;5023144;28;20112;-75
2023/11/11 03:22:25;;;;;;;24.85;11.10;;;6.50;95.50;;;;;;5022866;28;20364;-74
2023/11/11 03:24:51;;;;;;;22.13;12.57;;;6.50;95.60;;;;;;5018157;28;20117;-76
2023/11/11 03:27:17;;;;;;;18.08;11.88;;;6.60;95.60;;;;;;5018318;28;20128;-75
2023/11/11 03:29:42;;;;;;;20.15;12.00;;;6.60;95.40;;;;;;5020617;28;20042;-75
2023/11/11 03:32:08;;;;;;;19.38;10.80;;;6.60;95.20;;;;;;5021095;28;20549;-77
2023/11/11 03:34:35;;;;;;;21.98;12.60;;;6.50;95.20;;;;;;5021880;28;20038;-75
2023/11/11 03:37:01;;;;;;;17.80;10.93;;;6.50;95.20;;;;;;5023137;28;20084;-75
2023/11/11 03:39:26;;;;;;;15.60;10.55;;;6.40;95.30;;;;;;5024692;28;20635;-76
2023/11/11 03:41:52;;;;;;;18.33;11.75;;;6.40;95.30;;;;;;5019345;28;20037;-75
2023/11/11 03:44:17;;;;;;;18.88;11.63;;;6.40;95.40;;;;;;5017492;28;20567;-76
2023/11/11 03:46:43;;;;;;;18.08;11.48;;;6.40;95.40;;;;;;5019202;28;20041;-74
2023/11/11 03:49:09;;;;;;;21.80;12.05;;;6.30;95.40;;;;;;5023139;28;20030;-76
2023/11/11 03:51:35;;;;;;;22.92;12.35;;;6.30;95.40;;;;;;5022022;28;20033;-75
2023/11/11 03:54:01;;;;;;;19.65;11.85;;;6.30;95.40;;;;;;5022412;28;20053;-76
2023/11/11 03:56:27;;;;;;;20.55;12.45;;;6.30;95.50;;;;;;5022382;28;20058;-75
2023/11/11 03:58:53;;;;;;;19.23;11.75;;;6.30;95.60;;;;;;5022137;28;20461;-75
2023/11/11 04:01:18;;;;;;;19.00;12.57;;;6.30;95.70;;;;;;5021051;28;20033;-74
2023/11/11 04:03:44;;;;;;;20.60;12.02;;;6.30;95.80;;;;;;5025296;28;20379;-75
2023/11/11 04:06:11;;;;;;;15.80;10.68;;;6.20;95.80;;;;;;5025337;28;20029;-78
2023/11/11 04:08:37;;;;;;;16.60;10.27;;;6.30;96.00;;;;;;5025108;28;20729;-76
2023/11/11 04:11:09;;;;;;;18.75;11.05;;;6.30;96.00;;;;;;5016465;28;20038;-77
2023/11/11 04:13:42;;;;;;;16.17;10.27;;;6.30;96.00;;;;;;5025964;28;20379;-75
2023/11/11 04:16:09;;;;;;;14.25;9.75;;;6.20;95.90;;;;;;5025171;28;20912;-76
2023/11/11 04:18:36;;;;;;;19.10;11.05;;;6.20;96.00;;;;;;5015283;28;20037;-75
2023/11/11 04:21:02;;;;;;;20.98;11.45;;;6.20;96.00;;;;;;5019194;28;20033;-76
2023/11/11 04:23:30;;;;;;;17.75;10.20;;;6.20;96.00;;;;;;5025544;28;20037;-79
2023/11/11 04:25:57;;;;;;;19.27;11.30;;;6.20;96.10;;;;;;5017663;28;20045;-76
2023/11/11 04:28:28;;;;;;;15.32;10.30;;;6.20;96.10;;;;;;5021766;28;20049;-76
2023/11/11 04:30:54;;;;;;;16.73;11.02;;;6.10;96.20;;;;;;5020654;28;20032;-78
2023/11/11 04:33:20;;;;;;;24.10;10.18;;;6.10;96.20;;;;;;5024065;28;20034;-75
2023/11/11 04:35:46;;;;;;;16.05;9.70;;;6.20;96.30;;;;;;5024627;28;20034;-76
2023/11/11 04:38:12;;;;;;;16.85;9.95;;;6.10;96.30;;;;;;5023546;28;20099;-76
2023/11/11 04:40:38;;;;;;;20.10;11.05;;;6.10;96.30;;;;;;5022863;28;20033;-78
2023/11/11 04:43:03;;;;;;;17.10;10.50;;;6.10;96.40;;;;;;5024423;28;20111;-77
2023/11/11 04:45:30;;;;;;;21.13;10.27;;;6.10;96.40;;;;;;5020751;28;20045;-77
2023/11/11 04:47:57;;;;;;;26.50;10.18;;;6.20;96.40;;;;;;5023444;28;20033;-77
2023/11/11 04:50:23;;;;;;;17.58;9.60;;;6.10;96.60;;;;;;5022087;28;20057;-76
2023/11/11 04:52:49;;;;;;;19.33;10.73;;;6.20;96.60;;;;;;5018730;28;20038;-76
2023/11/11 04:55:14;;;;;;;16.45;9.77;;;6.30;96.50;;;;;;5024868;28;20167;-79
2023/11/11 04:57:40;;;;;;;19.13;10.43;;;6.30;96.50;;;;;;5018489;28;20136;-76
2023/11/11 05:00:09;;;;;;;17.92;10.80;;;6.20;96.40;;;;;;5024633;28;20037;-76
2023/11/11 05:02:37;;;;;;;19.42;10.45;;;6.10;96.40;;;;;;5015055;28;20433;-77
2023/11/11 05:05:03;;;;;;;19.17;10.32;;;6.10;96.50;;;;;;5023116;28;20042;-79
2023/11/11 05:07:29;;;;;;;19.98;10.55;;;6.10;96.50;;;;;;5021110;28;20041;-76
2023/11/11 05:09:54;;;;;;;16.52;10.30;;;6.10;96.60;;;;;;5017656;28;20031;-76
2023/11/11 05:12:21;;;;;;;17.38;10.77;;;6.10;96.60;;;;;;5021559;28;20038;-76
2023/11/11 05:14:46;;;;;;;18.83;11.23;;;6.10;96.60;;;;;;5019923;28;20033;-76
2023/11/11 05:17:13;;;;;;;17.67;10.55;;;6.10;96.70;;;;;;5013870;28;20092;-77
2023/11/11 05:19:39;;;;;;;17.95;9.75;;;6.20;96.70;;;;;;5019451;28;20017;-76
2023/11/11 05:22:06;;;;;;;17.20;9.23;;;6.10;96.80;;;;;;5020154;28;20438;-76
2023/11/11 05:24:32;;;;;;;15.73;9.65;;;6.10;96.80;;;;;;5017542;28;20375;-76
2023/11/11 05:26:58;;;;;;;17.00;8.98;;;6.20;96.90;;;;;;5021985;28;20042;-76
2023/11/11 05:29:24;;;;;;;16.17;9.75;;;6.20;96.80;;;;;;5018600;28;20053;-81
2023/11/11 05:31:49;;;;;;;15.23;9.68;;;6.10;96.80;;;;;;5020707;28;20029;-76
2023/11/11 05:34:15;;;;;;;16.75;9.07;;;6.10;96.80;;;;;;5015879;28;20084;-80
2023/11/11 05:36:42;;;;;;;14.45;8.85;;;6.10;96.80;;;;;;5019445;28;20823;-76
2023/11/11 05:39:07;;;;;;;18.23;9.38;;;6.10;96.80;;;;;;5023220;28;20504;-80
2023/11/11 05:41:33;;;;;;;14.57;8.55;;;6.10;96.80;;;;;;5019045;28;20065;-76
2023/11/11 05:43:59;;;;;;;16.45;9.18;;;6.00;96.70;;;;;;5021164;28;20026;-76
2023/11/11 05:46:25;;;;;;;17.50;9.88;;;5.90;96.60;;;;;;5021301;28;20033;-76
2023/11/11 05:48:51;;;;;;;18.08;9.93;;;5.90;96.70;;;;;;5023809;28;20112;-75
2023/11/11 05:51:17;;;;;;;15.82;9.68;;;5.90;96.80;;;;;;5020183;28;20116;-75
2023/11/11 05:53:43;;;;;;;14.07;9.45;;;5.80;96.90;;;;;;5023382;28;20478;-79
2023/11/11 05:56:08;;;;;;;17.10;9.43;;;5.80;96.80;;;;;;5018475;28;20048;-76
2023/11/11 05:58:35;;;;;;;17.90;9.68;;;5.70;96.90;;;;;;5022870;28;20034;-77
2023/11/11 06:01:01;;;;;;;15.65;9.52;;;5.70;96.90;;;;;;5023015;28;20470;-75
2023/11/11 06:03:28;;;;;;;16.05;9.05;;;5.70;97.00;;;;;;5027893;28;20025;-76
2023/11/11 06:05:54;;;;;;;19.27;10.18;;;5.70;97.10;;;;;;5020023;28;20057;-76
2023/11/11 06:08:19;;;;;;;16.67;9.98;;;5.70;97.20;;;;;;5018359;28;20050;-75
2023/11/11 06:10:45;;;;;;;18.45;9.70;;;5.80;97.30;;;;;;5020397;28;20037;-75
2023/11/11 06:13:11;;;;;;;16.25;8.40;;;5.80;97.20;;;;;;5024163;28;20033;-75
2023/11/11 06:15:37;;;;;;;14.57;9.15;;;5.80;97.30;;;;;;5035537;28;20038;-78
2023/11/11 06:18:03;;;;;;;15.68;8.63;;;5.90;97.40;;;;;;5022100;28;20120;-76
2023/11/11 06:20:30;;;;;;;18.52;9.10;;;5.90;97.40;;;;;;5017284;28;20038;-76
2023/11/11 06:22:56;;;;;;;14.27;8.77;;;6.00;97.40;;;;;;5023296;28;20038;-75
2023/11/11 06:25:22;;;;;;;13.45;8.80;;;6.00;97.40;;;;;;5016113;28;20048;-77
2023/11/11 06:27:48;;;;;;;19.52;10.70;;;6.00;97.40;;;;;;5016467;28;20077;-78
2023/11/11 06:30:16;;;;;;;15.60;9.70;;;6.10;97.40;;;;;;5019894;28;20116;-76
2023/11/11 06:32:43;;;;;;;16.10;10.05;;;6.00;97.40;;;;;;5020540;28;20620;-78
2023/11/11 06:35:11;;;;;;;16.95;9.02;;;6.10;97.50;;;;;;5018915;28;20111;-77
2023/11/11 06:37:36;;;;;;;19.75;9.82;;;6.10;97.50;;;;;;5023166;28;20386;-76
2023/11/11 06:40:03;;;;;;;22.02;10.38;;;6.10;97.40;;;;;;5020628;28;20040;-78
2023/11/11 06:42:29;;;;;;;15.20;9.25;;;6.10;97.30;;;;;;5020850;28;20049;-76
2023/11/11 06:44:56;;;;;;;17.42;11.10;;;6.10;97.30;;;;;;5016231;28;20045;-80
2023/11/11 06:47:22;;;;;;;21.30;12.80;;;6.10;97.30;;;;;;5020203;28;20488;-76
2023/11/11 06:49:48;;;;;;;20.15;12.20;;;6.10;97.40;;;;;;5020607;28;20033;-76
2023/11/11 06:52:13;;;;;;;22.27;13.45;;;6.10;97.40;;;;;;5020320;28;20033;-77
2023/11/11 06:54:39;;;;;;;20.13;13.75;;;6.10;97.40;;;;;;5019007;28;20080;-76
2023/11/11 06:57:05;;;;;;;20.05;14.13;;;6.20;97.30;;;;;;5021499;28;20025;-80
2023/11/11 06:59:32;;;;;;;21.67;13.70;;;6.10;97.30;;;;;;5020161;28;20449;-77
2023/11/11 07:01:57;;;;;;;20.48;13.45;;;6.20;97.30;;;;;;5013958;28;20100;-81
2023/11/11 07:04:23;;;;;;;19.65;12.88;;;6.10;97.30;;;;;;5022651;28;20502;-79
2023/11/11 07:06:49;;;;;;;17.60;11.48;;;6.20;97.30;;;;;;5034115;28;20068;-76
2023/11/11 07:09:14;;;;;;;16.70;10.50;;;6.10;97.20;;;;;;5029548;28;20005;-80
2023/11/11 07:11:40;;;;;;;18.33;9.98;;;6.10;97.20;;;;;;5050280;28;20048;-80
2023/11/11 07:14:08;;;;;;;17.95;9.00;;;6.10;97.20;;;;;;5052331;28;20037;-80
2023/11/11 07:16:34;;;;;;;16.77;9.40;;;6.00;97.10;;;;;;5040291;28;20064;-76
2023/11/11 07:19:00;;;;;;;18.17;9.20;;;6.00;97.10;;;;;;5027202;28;20037;-76
2023/11/11 07:21:26;;;;;;;15.85;8.32;;;5.90;97.00;;;;;;5027154;28;20044;-76
2023/11/11 07:23:52;;;;;;;14.98;8.45;;;5.90;97.00;;;;;;5029939;28;20021;-75
2023/11/11 07:26:19;;;;;;;15.75;8.82;;;5.90;97.00;;;;;;5026884;28;20049;-77
2023/11/11 07:28:45;;;;;;;17.83;8.40;;;5.90;97.00;;;;;;5022628;28;20052;-77
2023/11/11 07:31:19;;;;;;;15.48;7.85;;;5.90;97.10;;;;;;5030303;28;20691;-76
2023/11/11 07:33:45;;;;;;;14.75;8.57;;;6.00;97.20;;;;;;5020474;28;20037;-75
2023/11/11 07:36:11;;;;;;;15.93;8.73;;;6.10;97.30;;;;;;5026377;28;20047;-75
2023/11/11 07:38:39;;;;;;;16.27;7.97;;;6.20;97.40;;;;;;5025147;28;20113;-76
2023/11/11 07:41:07;;;;;;;14.63;8.07;;;6.30;97.40;;;;;;5017951;28;20037;-76
2023/11/11 07:43:33;;;;;;;16.00;8.93;;;6.40;97.30;;;;;;5027164;28;20038;-76
2023/11/11 07:46:00;;;;;;;15.27;9.20;;;6.50;97.20;;;;;;5027190;28;20041;-76
2023/11/11 07:48:26;;;;;;;15.32;8.55;;;6.60;97.10;;;;;;5019112;28;20544;-76
2023/11/11 07:50:52;;;;;;;16.40;7.97;;;6.60;96.90;;;;;;5027971;28;20033;-77
2023/11/11 07:53:18;;;;;;;14.48;8.00;;;6.70;96.80;;;;;;5027213;28;20084;-76
2023/11/11 07:55:44;;;;;;;13.32;7.95;;;6.70;96.60;;;;;;5026194;28;20091;-77
2023/11/11 07:58:11;;;;;;;13.15;7.63;;;6.70;96.50;;;;;;5022728;28;20528;-78
2023/11/11 08:00:36;;;;;;;13.27;7.55;;;6.70;96.40;;;;;;5023518;28;20029;-76
2023/11/11 08:03:03;;;;;;;13.57;7.40;;;6.70;96.30;;;;;;5024166;28;20068;-78
2023/11/11 08:05:29;;;;;;;13.30;6.85;;;6.80;96.40;;;;;;5026590;28;20140;-78
2023/11/11 08:07:58;;;;;;;10.80;7.07;;;6.90;96.30;;;;;;5024230;28;20117;-76
2023/11/11 08:10:27;;;;;;;13.27;6.90;;;7.10;96.20;;;;;;5031573;28;20033;-76
2023/11/11 08:12:53;;;;;;;14.20;8.00;;;7.10;96.20;;;;;;5031695;28;20041;-75
2023/11/11 08:15:20;;;;;;;14.50;7.70;;;7.10;96.20;;;;;;5026524;28;20033;-76
2023/11/11 08:17:47;;;;;;;14.20;7.15;;;7.20;96.30;;;;;;5029342;28;20033;-75
2023/11/11 08:20:16;;;;;;;14.52;6.97;;;7.30;96.20;;;;;;5028000;28;20056;-76
2023/11/11 08:22:50;;;;;;;12.77;6.88;;;7.50;96.10;;;;;;5021241;28;20040;-76
2023/11/11 08:25:16;;;;;;;13.77;7.35;;;7.50;95.90;;;;;;5044987;28;20032;-78
2023/11/11 08:27:43;;;;;;;16.48;6.93;;;7.60;95.70;;;;;;5068835;28;20116;-79
2023/11/11 08:30:13;;;;;;;15.00;7.38;;;7.60;95.50;;;;;;5049537;28;20112;-80
2023/11/11 08:32:39;;;;;;;12.55;7.00;;;7.60;95.30;;;;;;5042379;28;20038;-76
2023/11/11 08:35:08;;;;;;;12.02;6.90;;;7.70;95.30;;;;;;5048221;28;20048;-77
2023/11/11 08:37:34;;;;;;;15.80;7.57;;;7.80;95.30;;;;;;5046048;28;20046;-79
2023/11/11 08:40:05;;;;;;;13.18;6.57;;;7.90;95.20;;;;;;5054801;28;20043;-79
2023/11/11 08:42:31;;;;;;;11.73;7.30;;;8.10;95.20;;;;;;5030450;28;20039;-78
2023/11/11 08:44:58;;;;;;;13.70;6.88;;;8.10;94.70;;;;;;5038913;28;20105;-79
2023/11/11 08:47:24;;;;;;;17.70;6.72;;;8.20;94.20;;;;;;5038803;28;20052;-79
2023/11/11 08:49:50;;;;;;;12.38;6.65;;;8.10;93.90;;;;;;5036531;28;20035;-78
2023/11/11 08:52:15;;;;;;;14.00;7.30;;;8.20;93.80;;;;;;5040498;28;20041;-78
2023/11/11 08:54:41;;;;;;;11.25;6.55;;;8.20;93.60;;;;;;5039632;28;20021;-77
2023/11/11 08:57:07;;;;;;;14.65;6.80;;;8.40;94.20;;;;;;5040092;28;20037;-77
2023/11/11 08:59:33;;;;;;;15.18;7.90;;;8.70;94.00;;;;;;5024166;28;20109;-77
2023/11/11 09:01:59;;;;;;;15.70;7.25;;;8.80;92.50;;;;;;5013423;28;20041;-77
2023/11/11 09:04:25;;;;;;;13.25;7.03;;;8.90;92.50;;;;;;5019444;28;20041;-77
2023/11/11 09:06:50;;;;;;;16.55;6.85;;;9.10;92.10;;;;;;5017984;28;20170;-77
2023/11/11 09:09:16;;;;;;;15.90;6.47;;;9.10;91.60;;;;;;5018640;28;20037;-77
2023/11/11 09:11:42;;;;;;;12.02;6.38;;;9.20;91.40;;;;;;5020688;28;20112;-77
2023/11/11 09:14:08;;;;;;;12.70;6.95;;;9.10;90.90;;;;;;5019925;28;20433;-77
2023/11/11 09:16:34;;;;;;;11.25;6.32;;;9.00;91.00;;;;;;5018539;28;20041;-77
2023/11/11 09:19:03;;;;;;;13.60;6.32;;;8.90;91.30;;;;;;5013892;28;20095;-77
2023/11/11 09:21:29;;;;;;;13.70;6.88;;;9.00;92.00;;;;;;5019839;28;20038;-77
2023/11/11 09:23:55;;;;;;;12.00;6.35;;;9.10;92.10;;;;;;5018712;28;20025;-78
2023/11/11 09:26:21;;;;;;;12.32;6.00;;;9.20;91.80;;;;;;5013385;28;20037;-78
2023/11/11 09:28:49;;;;;;;10.05;5.82;;;9.10;91.00;;;;;;5014152;28;20091;-77
2023/11/11 09:31:15;;;;;;;12.05;6.35;;;9.20;91.70;;;;;;5021545;28;20034;-78
2023/11/11 09:33:42;;;;;;;12.18;6.05;;;9.30;91.60;;;;;;5016222;28;20034;-74
2023/11/11 09:36:08;;;;;;;12.05;5.80;;;9.50;91.40;;;;;;5018099;28;20095;-76
2023/11/11 09:38:33;;;;;;;10.27;5.63;;;9.70;91.10;;;;;;5022469;28;20045;-75
2023/11/11 09:41:00;;;;;;;11.68;5.53;;;9.80;90.50;;;;;;5018831;28;20060;-77
2023/11/11 09:43:25;;;;;;;12.93;5.40;;;9.90;90.40;;;;;;5019970;28;20116;-75
2023/11/11 09:45:51;;;;;;;17.00;6.32;;;9.90;89.60;;;;;;5021493;28;20132;-74
2023/11/11 09:48:17;;;;;;;10.07;5.95;;;10.00;89.90;;;;;;5023251;28;20076;-75
2023/11/11 09:50:46;;;;;;;11.25;5.35;;;10.10;89.30;;;;;;5022613;28;20061;-75
2023/11/11 09:53:13;;;;;;;10.68;5.18;;;10.10;89.50;;;;;;5020522;28;20048;-75
2023/11/11 09:55:39;;;;;;;13.13;5.28;;;10.20;89.20;;;;;;5023605;28;20052;-75
2023/11/11 09:58:06;;;;;;;14.15;6.32;;;10.40;89.00;;;;;;5022104;28;20029;-75
2023/11/11 10:00:32;;;;;;;10.82;5.10;;;10.40;89.00;;;;;;5021970;28;20044;-75
2023/11/11 10:02:58;;;;;;;9.57;4.63;;;10.50;89.10;;;;;;5020476;28;20124;-77
2023/11/11 10:05:24;;;;;;;10.65;4.97;;;10.50;88.60;;;;;;5016469;28;20041;-76
2023/11/11 10:07:51;;;;;;;13.88;5.38;;;10.40;88.80;;;;;;5033464;28;20043;-74
2023/11/11 10:10:17;;;;;;;9.88;4.85;;;10.30;88.90;;;;;;5019458;28;20675;-77
2023/11/11 10:12:42;;;;;;;17.80;5.90;;;10.20;89.30;;;;;;5017947;28;20036;-75
2023/11/11 10:15:09;;;;;;;10.43;4.97;;;10.30;90.30;;;;;;5013771;28;20038;-75
2023/11/11 10:17:41;;;;;;;9.35;4.82;;;10.50;90.10;;;;;;5018617;28;20081;-77
2023/11/11 10:20:15;;;;;;;9.48;4.65;;;10.60;89.20;;;;;;5013604;28;20040;-78
2023/11/11 10:22:44;;;;;;;10.07;5.15;;;10.50;89.00;;;;;;5012169;28;20033;-77
2023/11/11 10:25:11;;;;;;;11.40;4.88;;;10.50;89.40;;;;;;5018300;28;20049;-77
2023/11/11 10:27:36;;;;;;;13.68;5.18;;;10.70;89.50;;;;;;5022671;28;20060;-78
2023/11/11 10:30:03;;;;;;;11.80;4.75;;;10.90;88.40;;;;;;5020398;28;20041;-75
2023/11/11 10:32:29;;;;;;;9.18;4.57;;;11.10;88.30;;;;;;5017295;28;20040;-76
2023/11/11 10:34:57;;;;;;;9.20;4.00;;;11.20;87.80;;;;;;5023420;28;21005;-75
2023/11/11 10:37:23;;;;;;;8.77;4.15;;;11.10;87.40;;;;;;5015184;28;20048;-74
2023/11/11 10:39:48;;;;;;;9.93;4.13;;;11.30;87.00;;;;;;5019616;28;20135;-75
2023/11/11 10:42:17;;;;;;;9.20;4.07;;;11.40;86.90;;;;;;5015349;28;20498;-75
2023/11/11 10:44:42;;;;;;;10.15;3.83;;;11.40;86.70;;;;;;5018926;28;20108;-76
2023/11/11 10:47:10;;;;;;;11.15;3.92;;;11.60;86.20;;;;;;5018085;28;20125;-78
2023/11/11 10:49:37;;;;;;;9.48;4.40;;;11.80;85.40;;;;;;5016260;28;20079;-76
2023/11/11 10:52:04;;;;;;;12.57;4.55;;;12.00;85.30;;;;;;5019105;28;20033;-76
2023/11/11 10:54:32;;;;;;;9.43;3.85;;;12.20;84.40;;;;;;5022408;28;20037;-76
2023/11/11 10:56:59;;;;;;;8.98;4.03;;;12.20;83.80;;;;;;5022101;28;20543;-78
2023/11/11 10:59:26;;;;;;;9.75;3.95;;;11.90;84.20;;;;;;5022136;28;20516;-76
2023/11/11 11:01:53;;;;;;;7.53;3.38;;;11.90;84.10;;;;;;5020747;28;21723;-78
2023/11/11 11:04:24;;;;;;;11.32;4.38;;;11.90;84.30;;;;;;5021999;28;20586;-73
2023/11/11 11:06:55;;;;;;;10.43;4.45;;;12.10;84.70;;;;;;5020475;28;20573;-74
2023/11/11 11:09:50;;;;;;;12.10;4.38;;;12.30;84.00;;;;;;5020000;28;20681;-75
2023/11/11 11:12:45;;;;;;;;;;;12.20;84.00;;;;;;5021197;28;20025;-74
2023/11/11 11:15:14;;;;;;;13.10;5.30;;;12.10;84.50;;;;;;5011905;28;19913;-73
2023/11/11 11:17:45;;;;;;;11.45;4.85;;;12.20;85.10;;;;;;5022219;28;20059;-73
2023/11/11 11:20:14;;;;;;;10.88;4.85;;;12.10;84.70;;;;;;5014540;28;20800;-73
2023/11/11 11:22:46;;;;;;;10.23;4.80;;;11.90;84.90;;;;;;5022308;28;20029;-73
2023/11/11 11:25:51;;;;;;;13.13;5.35;;;11.60;86.20;;;;;;5018057;28;20238;-74
2023/11/11 11:28:18;;;;;;;9.45;4.63;;;11.60;86.80;;;;;;5015583;28;20043;-74
2023/11/11 11:30:58;;;;;;;9.40;5.43;;;11.40;87.20;;;;;;5019235;28;20553;-74
2023/11/11 11:33:30;;;;;;;12.88;5.78;;;11.40;87.40;;;;;;5020453;28;20069;-73
2023/11/11 11:36:01;;;;;;;12.00;5.72;;;11.40;87.40;;;;;;5014899;28;20426;-74
2023/11/11 11:38:31;;;;;;;11.75;5.30;;;11.20;87.30;;;;;;5019158;28;20095;-74
2023/11/11 11:41:10;;;;;;;10.45;5.68;;;11.20;87.30;;;;;;5019443;28;20316;-74
2023/11/11 11:43:38;;;;;;;11.63;6.10;;;11.10;88.20;;;;;;5014748;28;20038;-75
2023/11/11 11:46:05;;;;;;;11.95;5.70;;;11.00;88.30;;;;;;5009056;28;20605;-74
2023/11/11 11:48:33;;;;;;;10.45;5.38;;;10.90;88.20;;;;;;5018176;28;20037;-76
2023/11/11 11:51:07;;;;;;;13.73;7.25;;;11.00;88.00;;;;;;5019129;28;20026;-74
2023/11/11 11:53:33;;;;;;;11.00;5.85;;;11.10;87.90;;;;;;5017216;28;20037;-74
2023/11/11 11:55:59;;;;;;;12.27;6.07;;;10.80;87.80;;;;;;5032874;28;20092;-79
2023/11/11 11:58:25;;;;;;;13.73;6.57;;;10.90;88.40;;;;;;5048520;28;20041;-76
2023/11/11 12:00:51;;;;;;;12.10;6.05;;;11.00;88.10;;;;;;5044872;28;20116;-78
2023/11/11 12:03:17;;;;;;;10.18;5.90;;;11.20;87.50;;;;;;5033009;28;20057;-74
2023/11/11 12:05:43;;;;;;;11.07;5.97;;;11.40;86.80;;;;;;5032366;28;20041;-75
2023/11/11 12:08:09;;;;;;;8.05;5.18;;;11.60;86.50;;;;;;5025924;28;20091;-74
2023/11/11 12:10:45;;;;;;;9.38;5.38;;;11.90;86.00;;;;;;5017873;28;20438;-75
2023/11/11 12:13:12;;;;;;;12.52;4.20;;;12.20;84.80;;;;;;5021807;28;20030;-76
2023/11/11 12:15:39;;;;;;;10.07;4.82;;;12.50;83.80;;;;;;5020428;28;20042;-76
2023/11/11 12:18:09;;;;;;;7.65;3.65;;;12.60;83.90;;;;;;5021960;28;20091;-75
2023/11/11 12:20:42;;;;;;;6.53;2.47;;;12.50;83.00;;;;;;5024614;28;20486;-76
2023/11/11 12:23:11;;;;;;;8.40;2.45;;;12.10;82.40;;;;;;5019368;28;20064;-76
2023/11/11 12:25:39;;;;;;;6.43;2.20;;;11.80;82.00;;;;;;5023792;28;20616;-75
2023/11/11 12:28:06;;;;;;;6.65;2.00;;;11.60;82.90;;;;;;5023453;28;20073;-78
2023/11/11 12:30:32;;;;;;;4.72;1.83;;;11.60;83.60;;;;;;5021146;28;20363;-77
2023/11/11 12:33:08;;;;;;;7.55;2.03;;;11.60;83.30;;;;;;5021706;28;20087;-78
2023/11/11 12:35:40;;;;;;;6.40;2.40;;;11.60;82.80;;;;;;5018082;28;20033;-75
2023/11/11 12:38:32;;;;;;;6.38;2.15;;;11.60;83.40;;;;;;5040242;28;20044;-75
2023/11/11 12:41:01;;;;;;;4.70;2.22;;;11.70;82.70;;;;;;5022457;28;20450;-78
2023/11/11 12:43:26;;;;;;;7.22;2.40;;;11.40;82.70;;;;;;5020274;28;20516;-76